Weather observations for the past three days for
La Porte Municipal Airport
Metric (Imperial)
Date Time (cdt) Wind (kph) Vis. (km) Weather Sky Cond. Temperature (ºC) Relative Humidity Wind Chill (°C) Heat Index (°C) Pressure Precipitation (cm)
Air Dwpt 6 hour altimeter (cm) sea level (mb) 1 hr 3 hr 6 hr
Max. Min.
06 11:15 E 6 16.09 Fair CLR 31 23 62% 35 76.12 0.0
06 10:55 Calm 16.09 Fair CLR 28 23 74% 31 76.1 0.0 0.18
06 10:35 NE 7 16.09 Partly Cloudy SCT044 SCT070 SCT110 26 23 84% 28 76.1 0.0 0.18
06 10:15 N 17 5.63 Overcast with Haze SCT010 BKN070 OVC085 25 23 89% 26 76.1 0.0 0.15
06 09:55 N 24 5.63 Overcast with Haze SCT009 BKN027 OVC070 26 22 79% 28 76.1 0.0 0.05
06 09:35 Calm 16.09 Mostly Cloudy BKN019 BKN026 BKN070 30 26 79% 37 76.1 0.0
06 09:15 SE 6 16.09 Partly Cloudy SCT011 SCT025 SCT047 30 26 79% 37 76.1 0.0
06 08:55 E 6 16.09 Fair CLR 29 26 84% 36 76.07 0.0
06 08:35 E 6 16.09 Fair CLR 29 26 84% 36 76.07 0.0
06 08:15 Calm 16.09 Fair CLR 28 26 89% 34 76.05 0.0
06 07:55 Calm 16.09 Fair CLR 27 26 94% 31 76.02 0.0
06 07:35 Calm 16.09 Fair CLR 25 25 100% 25 76.02 0.0
06 07:15 Calm 16.09 Fair CLR 25 24 94% 26 76 0.0
06 06:55 Calm 16.09 Fair CLR 25 24 94% 26 76 0.0
06 06:35 Calm 16.09 Fair CLR 25 25 100% 25 75.97 0.0
06 06:15 Calm 16.09 Fair CLR 25 25 100% 25 75.97 0.0
06 05:55 Calm 16.09 Fair CLR 25 25 100% 25 75.97 0.0
06 05:35 Calm 16.09 Fair CLR 26 25 94% 28 75.95 0.0
06 05:15 Calm 16.09 Fair CLR 26 25 94% 28 75.95 0.0
06 04:55 Calm 16.09 Fair CLR 26 25 94% 28 75.95 0.0
06 04:35 Calm 16.09 Fair CLR 26 25 94% 28 75.92 0.0
06 04:15 Calm 16.09 Fair CLR 26 25 94% 28 75.92 0.0
06 03:55 Calm 16.09 Fair CLR 26 25 94% 28 75.92 0.0
06 03:35 Calm 16.09 Fair CLR 26 25 94% 28 75.92 0.0
06 03:15 Calm 16.09 Partly Cloudy SCT020 26 25 94% 28 75.95 0.0
06 02:55 Calm 16.09 Fair CLR 26 25 94% 28 75.95 0.0
06 02:35 Calm 16.09 Fair CLR 26 25 94% 28 75.95 0.0
06 02:15 Calm 16.09 Fair CLR 26 25 94% 28 75.95 0.0
06 01:55 Calm 16.09 Partly Cloudy SCT021 26 25 94% 28 75.97 0.0
06 01:35 Calm 16.09 Fair CLR 26 25 94% 28 75.95 0.0
06 01:15 Calm 16.09 Fair CLR 26 25 94% 28 75.95 0.0
06 00:55 Calm 16.09 Partly Cloudy SCT024 SCT028 26 25 94% 28 75.95 0.0
06 00:35 Calm 16.09 Partly Cloudy SCT024 SCT028 26 25 94% 28 75.95 0.0
06 00:15 Calm 16.09 Partly Cloudy SCT020 26 25 94% 28 75.95 0.0
05 23:55 Calm 16.09 Partly Cloudy SCT020 27 25 89% 31 75.97 0.0
05 23:35 SE 6 16.09 Fair CLR 27 25 89% 31 75.95 0.0
05 23:15 SE 9 16.09 Fair CLR 27 25 89% 31 75.97 0.0
05 22:55 SE 6 16.09 Fair CLR 27 25 89% 31 75.97 0.0
05 22:35 E 7 16.09 Fair CLR 27 25 89% 31 75.97 0.0
05 22:15 E 11 16.09 Fair CLR 27 25 89% 31 75.97 0.0
05 21:55 E 7 16.09 Fair CLR 27 25 89% 31 75.95 0.0
05 21:35 E 11 16.09 Fair CLR 27 25 89% 31 75.95 0.0
05 21:15 E 7 16.09 Fair CLR 27 25 89% 31 75.92 0.0
05 20:55 E 7 16.09 Fair CLR 27 25 89% 31 75.92 0.0
05 20:35 E 7 16.09 Fair CLR 27 25 89% 31 75.9 0.0
05 20:15 E 9 16.09 Fair CLR 28 25 84% 33 75.9 0.0
05 19:55 E 13 16.09 Fair CLR 28 25 84% 33 75.9 0.0
05 19:35 E 15 16.09 Fair CLR 28 25 84% 33 75.9 0.0
05 19:15 E 17 16.09 Partly Cloudy SCT021 29 25 79% 35 75.9 0.0
05 18:55 SE 15 16.09 Fair CLR 30 25 75% 36 75.95 0.0
05 18:35 SE 11 16.09 Fair CLR 30 25 75% 36 75.92 0.0
05 18:15 SE 19 16.09 Fair CLR 30 25 75% 36 75.92 0.0
05 17:55 SE 15 16.09 Fair CLR 30 25 75% 36 75.92 0.0
05 17:35 SE 17 16.09 Fair CLR 30 25 75% 36 75.92 0.0
05 17:15 SE 15 16.09 Fair CLR 31 24 66% 37 75.9 0.0
05 16:55 SE 17 16.09 Fair CLR 31 24 66% 37 75.9 0.0
05 16:35 SE 17 16.09 Partly Cloudy SCT120 31 24 66% 37 75.9 0.0
05 16:15 E 17 16.09 Partly Cloudy SCT120 31 24 66% 37 75.92 0.0
05 15:55 SE 17 16.09 Partly Cloudy SCT040 SCT047 32 24 63% 38 75.92 0.0
05 15:35 E 17 16.09 Partly Cloudy SCT040 SCT047 32 24 63% 38 75.95 0.0
05 15:15 Calm 16.09 Fair CLR 33 23 56% 38 75.95 0.0
05 14:55 S 13 16.09 Fair CLR 33 23 56% 38 75.95 0.0
05 12:55 S 13 16.09 Partly Cloudy SCT028 SCT032 32 24 63% 38 76.07 0.0
05 12:35 S 17 16.09 Partly Cloudy SCT028 31 24 66% 37 76.1 0.0
05 12:15 E 7 4.83 Thunderstorm Haze CLR 32 24 63% 38 76.1 0.0
05 11:55 E 11 16.09 Fair CLR 31 25 70% 38 76.1 0.0
05 11:35 E 7 16.09 Fair CLR 30 25 75% 36 76.12 0.0
05 11:15 Calm 16.09 Fair CLR 29 25 79% 35 76.12 0.0
05 10:55 E 7 16.09 Partly Cloudy SCT027 SCT043 SCT095 28 25 84% 33 76.12 0.0
05 10:35 NE 7 16.09 Overcast BKN060 OVC100 29 24 74% 34 76.12 0.0
05 10:15 N 11 16.09 Mostly Cloudy SCT038 SCT060 BKN100 29 23 70% 33 76.1 0.0
05 09:55 Calm 16.09 Mostly Cloudy SCT019 BKN024 BKN039 30 23 66% 34 76.1 0.0
05 09:35 W 7 16.09 Mostly Cloudy BKN019 BKN025 30 24 70% 35 76.1 0.0
05 09:15 Calm 16.09 Partly Cloudy SCT019 30 26 79% 37 76.1 0.0
05 08:55 Calm 16.09 Fair CLR 29 26 84% 36 76.07 0.0
05 08:35 Calm 16.09 Fair CLR 28 26 89% 34 76.1 0.0
05 08:15 Calm 16.09 Fair CLR 27 26 94% 31 76.07 0.0
05 07:55 Calm 16.09 Fair CLR 26 25 94% 28 76.07 0.0
05 07:35 Calm 16.09 Fair CLR 25 25 100% 25 76.05 0.0
05 07:15 Calm 16.09 Fair CLR 25 24 94% 26 76.02 0.0
05 06:55 Calm 11.27 Fog/Mist CLR 25 24 94% 26 76.02 0.0
05 06:35 Calm 16.09 Fair CLR 25 24 94% 26 76 0.0
05 06:15 Calm 16.09 Fair CLR 25 24 94% 26 76 0.0
05 05:55 Calm 16.09 Fair CLR 25 24 94% 26 75.97 0.0
05 05:15 Calm 16.09 Fair CLR 25 24 94% 26 75.97 0.0
05 04:55 Calm 16.09 Fair CLR 25 24 94% 26 75.97 0.0
05 04:35 Calm 16.09 Fair CLR 25 24 94% 26 75.97 0.0
05 04:15 Calm 16.09 Fair CLR 25 25 100% 25 75.97 0.0
05 03:55 Calm 16.09 Fair CLR 26 25 94% 28 75.95 0.0
05 03:35 Calm 16.09 Fair CLR 25 25 100% 25 75.95 0.0
05 03:15 Calm 16.09 Fair CLR 26 25 94% 28 75.95 0.0
05 02:55 Calm 16.09 Fair CLR 26 25 94% 28 75.97 0.0
05 02:35 Calm 16.09 Fair CLR 26 25 94% 28 75.97 0.0
05 02:15 Calm 16.09 Fair CLR 27 25 89% 31 75.97 0.0
05 01:55 Calm 16.09 Fair CLR 27 25 89% 31 76 0.0
05 01:35 Calm 16.09 Fair CLR 27 25 89% 31 76.02 0.0
05 01:15 Calm 16.09 Fair CLR 28 25 84% 33 76.02 0.0
05 00:55 SW 11 16.09 Partly Cloudy SCT023 28 25 84% 33 76.02 0.0
05 00:35 SW 7 16.09 Partly Cloudy SCT023 28 25 84% 33 76.02 0.0
05 00:15 S 6 16.09 Partly Cloudy SCT023 28 25 84% 33 76.02 0.0
04 23:55 Calm 16.09 Fair CLR 28 25 84% 33 76.02 0.0
04 23:35 S 6 16.09 Fair CLR 28 25 84% 33 76.02 0.0
04 23:15 S 7 16.09 Fair CLR 28 25 84% 33 76.05 0.0
04 22:55 S 9 16.09 Fair CLR 29 25 79% 35 76.05 0.0
04 22:35 S 9 16.09 Fair CLR 29 25 79% 35 76.05 0.0
04 22:15 S 9 16.09 Fair CLR 29 25 79% 35 76.05 0.0
04 21:55 S 11 16.09 Fair CLR 29 25 79% 35 76.05 0.0
04 21:35 S 11 16.09 Fair CLR 29 25 79% 35 76.02 0.0
04 21:15 S 11 16.09 Fair CLR 29 25 79% 35 76.02 0.0
04 20:55 S 13 16.09 Fair CLR 29 25 79% 35 76 0.0
04 20:35 SE 9 16.09 Fair CLR 29 25 79% 35 76 0.0
04 20:15 S 7 16.09 Fair CLR 30 25 75% 36 76 0.0
04 19:55 S 15 16.09 Fair CLR 29 24 74% 34 75.97 0.0
04 19:35 SE 13 16.09 Fair CLR 30 24 70% 35 75.95 0.0
04 19:15 SE 15 16.09 Fair CLR 30 24 70% 35 75.95 0.0
04 18:55 SE 15 16.09 Fair CLR 31 24 66% 37 75.95 0.0
04 18:35 SE 15 16.09 Fair CLR 31 24 66% 37 75.95 0.0
04 18:15 SE 15 16.09 Fair CLR 32 24 63% 38 75.95 0.0
04 17:55 SE 19 16.09 Fair CLR 32 23 59% 37 75.95 0.0
04 17:35 SE 19 16.09 Fair CLR 32 24 63% 38 75.97 0.0
04 17:15 E 19 16.09 Fair CLR 32 24 63% 38 75.95 0.0
04 16:55 SE 17 16.09 Fair CLR 32 24 63% 38 75.95 0.0
04 16:35 SE 20 16.09 Fair CLR 32 24 63% 38 75.97 0.0
04 16:15 SE 20 16.09 Fair CLR 32 24 63% 38 75.97 0.0
04 15:55 SE 19 16.09 Fair CLR 32 24 63% 38 76 0.0
04 15:35 SE 11 16.09 Partly Cloudy SCT043 33 23 56% 38 76 0.0
04 15:15 E 13 16.09 Thunderstorm in Vicinity SCT041 SCT060 33 23 56% 38 76.05 0.0
04 14:55 S 9 16.09 Thunderstorm SCT041 SCT049 SCT060 31 23 62% 35 76.05 0.0
04 14:35 S 7 8.05 Thunderstorm Haze in Vicinity SCT040 33 23 56% 38 76.05 0.0
04 14:15 W 13 8.05 Partly Cloudy with Haze SCT040 SCT048 32 23 59% 37 76.07 0.0
04 13:55 W 9 16.09 Partly Cloudy SCT042 31 23 62% 35 76.07 0.0
04 13:35 Calm 16.09 Fair CLR 32 23 59% 37 76.1 0.0
04 13:15 E 9 16.09 Thunderstorm in Vicinity SCT033 SCT038 SCT085 33 24 59% 39 76.12 0.0
04 12:55 SE 15 8.05 Partly Cloudy with Haze SCT033 SCT039 33 24 59% 39 76.12 0.0
04 12:35 E 11 6.44 Fair with Haze CLR 32 24 63% 38 76.15 0.0
04 12:15 E 7 16.09 Fair CLR 31 23 62% 35 76.15 0.0
04 11:55 NE 6 16.09 Fair CLR 31 23 62% 35 76.17 0.0
04 11:35 NE 11 16.09 Fair CLR 30 23 66% 34 76.17 0.0
04 11:15 NE 17 16.09 Partly Cloudy SCT024 SCT035 SCT055 29 23 70% 33 76.17 0.0
04 10:55 N 17 16.09 Thunderstorm in Vicinity SCT024 BKN033 BKN070 30 24 70% 35 76.17 0.0
04 10:35 NE 11 16.09 Thunderstorm SCT024 SCT043 OVC070 29 25 79% 35 76.17 0.0
04 10:15 SE 15 8.05 Thunderstorm Haze in Vicinity SCT023 BKN033 OVC060 28 26 89% 34 76.15 0.0
04 09:55 SE 24 16.09 Thunderstorm in Vicinity SCT021 SCT027 BKN033 29 25 79% 35 76.12 0.0
04 09:35 Calm 16.09 Partly Cloudy SCT021 SCT070 30 25 75% 36 76.12 0.0
04 09:15 Calm 16.09 Partly Cloudy SCT080 30 25 75% 36 76.1 0.0
04 08:55 SE 7 16.09 Partly Cloudy SCT080 30 25 75% 36 76.1 0.0
04 08:35 E 7 16.09 Thunderstorm SCT080 29 25 79% 35 76.1 0.0
04 08:15 E 9 16.09 Fair CLR 29 26 84% 36 76.07 0.0
04 07:55 E 7 16.09 Fair CLR 28 26 89% 34 76.07 0.0
04 07:35 Calm 16.09 Fair CLR 27 26 94% 31 76.05 0.0
04 07:15 NE 6 16.09 Fair CLR 27 25 89% 31 76.05 0.0
04 06:55 Calm 16.09 Partly Cloudy SCT023 SCT038 27 26 94% 31 76.02 0.0
04 06:35 Calm 16.09 Partly Cloudy SCT025 SCT038 26 25 94% 28 76.02 0.0
04 06:15 Calm 16.09 Fair CLR 26 25 94% 28 76.02 0.0
04 05:55 Calm 16.09 Fair CLR 27 25 89% 31 76.02 0.0
04 05:35 Calm 16.09 Thunderstorm in Vicinity CLR 27 25 89% 31 76.02 0.0
04 05:15 Calm 16.09 Thunderstorm CLR 27 25 89% 31 76 0.0
04 04:55 Calm 16.09 Partly Cloudy SCT022 27 25 89% 31 75.97 0.0
04 04:35 Calm 16.09 Partly Cloudy SCT022 27 25 89% 31 75.97 0.0
04 04:15 Calm 16.09 Fair CLR 27 25 89% 31 75.97 0.0
04 03:55 SW 6 16.09 Fair CLR 28 25 84% 33 75.97 0.0
04 03:35 SW 7 16.09 Fair CLR 28 25 84% 33 75.97 0.0
04 03:15 SW 6 16.09 Partly Cloudy SCT021 28 25 84% 33 75.97 0.0
04 02:55 SW 13 16.09 Partly Cloudy SCT021 28 25 84% 33 75.97 0.0
04 02:35 S 9 16.09 Partly Cloudy SCT021 28 25 84% 33 76 0.0
04 02:15 S 13 16.09 Fair CLR 28 25 84% 33 76 0.0
04 01:55 S 11 16.09 Fair CLR 28 25 84% 33 76 0.0
04 01:35 SW 13 16.09 Fair CLR 28 25 84% 33 76 0.0
04 01:15 S 9 16.09 Fair CLR 29 25 79% 35 76 0.0
04 00:55 S 13 16.09 Fair CLR 29 25 79% 35 76 0.0
04 00:35 S 15 16.09 Partly Cloudy SCT021 29 25 79% 35 76 0.0
04 00:15 S 17 16.09 Fair CLR 29 25 79% 35 76 0.0
03 23:55 SE 13 16.09 Partly Cloudy SCT021 SCT031 29 26 84% 36 76 0.0
03 23:35 SE 19 16.09 Fair CLR 29 26 84% 36 76 0.0
03 23:15 SE 15 16.09 Fair CLR 29 25 79% 35 76.02 0.0
03 22:55 SE 17 16.09 Fair CLR 29 25 79% 35 76 0.0
03 22:35 SE 11 16.09 Fair CLR 29 25 79% 35 76.02 0.0
03 22:15 SE 15 16.09 Fair CLR 29 25 79% 35 76.02 0.0
03 21:55 SE 13 16.09 Fair CLR 29 25 79% 35 76.02 0.0
03 21:35 SE 13 16.09 Fair CLR 29 25 79% 35 76 0.0
03 21:15 SE 11 16.09 Fair CLR 29 25 79% 35 76 0.0
03 20:55 SE 11 16.09 Fair CLR 29 25 79% 35 75.97 0.0
03 20:35 SE 15 16.09 Fair CLR 29 25 79% 35 75.95 0.0
03 20:15 SE 15 16.09 Fair CLR 29 26 84% 36 75.95 0.0
03 19:55 E 11 16.09 Fair CLR 29 25 79% 35 75.95 0.0
03 19:35 SE 11 16.09 Fair CLR 29 25 79% 35 75.95 0.0
03 19:15 SE 15 16.09 Fair CLR 29 25 79% 35 75.95 0.0
03 18:55 SE 17 16.09 Fair CLR 30 25 75% 36 75.95 0.0
03 18:35 SE 19 16.09 Fair CLR 30 25 75% 36 75.95 0.0
03 18:15 SE 15 16.09 Fair CLR 30 25 75% 36 75.95 0.0
03 17:55 SE 17 16.09 Fair CLR 30 25 75% 36 75.95 0.0
03 17:35 SE 19 16.09 Fair CLR 31 24 66% 37 75.97 0.0
03 17:15 E 13 16.09 Fair CLR 31 25 70% 38 75.97 0.0
03 16:55 E 17 16.09 Thunderstorm in Vicinity SCT043 31 25 70% 38 75.97 0.0
03 16:35 SE 15 16.09 Thunderstorm in Vicinity SCT043 BKN095 31 24 66% 37 76.02 0.0
03 16:15 E 9 16.09 Thunderstorm SCT095 30 24 70% 35 76.05 0.0
03 15:55 E 15 16.09 Thunderstorm in Vicinity SCT037 SCT050 SCT110 30 24 70% 35 76.05 0.0
03 15:35 SE 20 16.09 Thunderstorm SCT037 SCT050 BKN075 30 25 75% 36 76.05 0.0
03 15:15 SE 24 16.09 Thunderstorm SCT050 SCT065 BKN085 31 25 70% 38 76.02 0.0
03 14:55 E 24 G 37 16.09 Partly Cloudy SCT060 31 25 70% 38 76.02 0.0
03 14:35 SE 20 16.09 Thunderstorm in Vicinity CLR 33 24 59% 39 76.05 0.0
03 14:15 SE 19 16.09 Fair CLR 33 25 63% 41 76.02 0.0
03 13:55 SE 11 16.09 Fair CLR 32 25 67% 39 76.05 0.0
03 13:35 SE 11 16.09 Thunderstorm in Vicinity CLR 32 25 67% 39 76.05 0.0
03 13:15 SE 13 16.09 Partly Cloudy SCT034 32 25 67% 39 76.07 0.0
03 12:55 E 7 16.09 Mostly Cloudy SCT026 BKN034 BKN040 32 25 67% 39 76.12 0.0
03 12:35 E 11 16.09 Mostly Cloudy SCT026 SCT031 BKN070 31 25 70% 38 76.12 0.0
03 12:15 S 7 16.09 Partly Cloudy SCT028 31 25 70% 38 76.12 0.0
03 11:55 SE 6 16.09 Fair CLR 32 25 67% 39 76.15 0.0
03 11:35 Calm 16.09 Fair CLR 30 26 79% 37 76.15 0.0
Date Time (cdt) Wind (kph) Vis. (km) Weather Sky Cond. Air Dwpt Max. Min. Relative Humidity Wind Chill (°C) Heat Index (°C) altimeter (cm) sea level (mb) 1 hr 3 hr 6 hr
6 hour
Temperature (ºC) Pressure Precipitation (cm)